Time;durP1;ratioP1;P1;durP2;ratioP2;P2;SDS_P1;SDS_P2;PMS_P1;PMS_P2;Temp;Humidity;BMP_temperature;BMP_pressure;BME280_temperature;BME280_humidity;BME280_pressure;Samples;Min_cycle;Max_cycle;Signal;HPM_P1;HPM_P2
2023/01/02 00:00:12;;;;;;;13.52;8.30;;;13.70;96.70;;;;;;4900368;29;20059;-73
2023/01/02 00:02:47;;;;;;;11.10;8.15;;;13.70;96.70;;;;;;4908378;29;20578;-73
2023/01/02 00:05:16;;;;;;;12.07;8.02;;;13.70;96.70;;;;;;4907834;29;20060;-73
2023/01/02 00:07:45;;;;;;;12.40;8.38;;;13.70;96.70;;;;;;4882648;29;20131;-73
2023/01/02 00:10:14;;;;;;;10.65;7.85;;;13.70;96.70;;;;;;4890475;29;20538;-73
2023/01/02 00:12:42;;;;;;;17.40;8.43;;;13.70;96.70;;;;;;4893923;29;20044;-73
2023/01/02 00:15:11;;;;;;;12.30;8.18;;;13.70;96.70;;;;;;4901299;29;20044;-73
2023/01/02 00:17:39;;;;;;;10.30;7.45;;;13.70;96.70;;;;;;4900441;29;20048;-74
2023/01/02 00:20:08;;;;;;;13.57;7.47;;;13.70;96.70;;;;;;4900405;29;20044;-73
2023/01/02 00:22:36;;;;;;;12.10;7.80;;;13.70;96.70;;;;;;4896485;29;20375;-73
2023/01/02 00:25:07;;;;;;;9.88;7.57;;;13.60;96.70;;;;;;4908284;29;20048;-73
2023/01/02 00:27:36;;;;;;;11.88;7.57;;;13.60;96.70;;;;;;4901710;29;20499;-74
2023/01/02 00:30:04;;;;;;;10.02;7.40;;;13.60;96.70;;;;;;4898709;29;20048;-73
2023/01/02 00:32:33;;;;;;;10.85;7.50;;;13.50;96.70;;;;;;4902911;29;20059;-73
2023/01/02 00:35:01;;;;;;;9.82;7.30;;;13.60;96.70;;;;;;4899865;29;20063;-73
2023/01/02 00:37:29;;;;;;;11.73;7.10;;;13.60;96.70;;;;;;4901574;29;20048;-74
2023/01/02 00:39:57;;;;;;;12.98;7.20;;;13.60;96.70;;;;;;4900926;29;20075;-73
2023/01/02 00:42:27;;;;;;;11.15;7.72;;;13.50;96.70;;;;;;4909202;29;20052;-73
2023/01/02 00:44:55;;;;;;;9.93;7.25;;;13.50;96.70;;;;;;4898203;29;20067;-73
2023/01/02 00:47:24;;;;;;;9.70;7.10;;;13.50;96.70;;;;;;4900706;29;20072;-73
2023/01/02 00:49:52;;;;;;;11.77;7.65;;;13.50;96.70;;;;;;4896992;29;20410;-73
2023/01/02 00:52:20;;;;;;;17.45;8.52;;;13.50;96.70;;;;;;4895132;29;20080;-73
2023/01/02 00:54:49;;;;;;;12.23;7.97;;;13.50;96.70;;;;;;4892383;29;20053;-73
2023/01/02 00:57:17;;;;;;;10.40;7.30;;;13.50;96.70;;;;;;4906204;29;20123;-70
2023/01/02 00:59:47;;;;;;;15.23;7.95;;;13.60;96.70;;;;;;4906773;29;20052;-70
2023/01/02 01:02:15;;;;;;;10.52;6.95;;;13.60;96.70;;;;;;4892131;29;20044;-70
2023/01/02 01:04:43;;;;;;;12.50;7.13;;;13.60;96.70;;;;;;4899866;29;20503;-70
2023/01/02 01:07:11;;;;;;;12.90;7.45;;;13.50;96.70;;;;;;4895211;29;20538;-72
2023/01/02 01:09:39;;;;;;;12.65;7.80;;;13.50;96.70;;;;;;4900459;29;20055;-73
2023/01/02 01:12:07;;;;;;;9.32;7.47;;;13.50;96.70;;;;;;4909299;29;20068;-73
2023/01/02 01:14:35;;;;;;;14.52;7.88;;;13.60;96.70;;;;;;4880869;29;20528;-72
2023/01/02 01:17:05;;;;;;;11.82;7.57;;;13.60;96.70;;;;;;4902411;29;20063;-72
2023/01/02 01:19:34;;;;;;;12.20;7.03;;;13.50;96.70;;;;;;4906176;29;20054;-73
2023/01/02 01:22:03;;;;;;;10.35;7.03;;;13.50;96.70;;;;;;4899486;29;20092;-73
2023/01/02 01:24:31;;;;;;;13.55;8.18;;;13.50;96.70;;;;;;4900277;29;20059;-72
2023/01/02 01:26:58;;;;;;;14.38;8.18;;;13.50;96.70;;;;;;4888987;29;20052;-73
2023/01/02 01:29:26;;;;;;;13.05;7.32;;;13.50;96.70;;;;;;4897345;29;20422;-72
2023/01/02 01:31:54;;;;;;;10.38;6.93;;;13.50;96.70;;;;;;4902649;29;20048;-73
2023/01/02 01:34:24;;;;;;;9.73;7.30;;;13.50;96.70;;;;;;4908566;29;20051;-72
2023/01/02 01:36:52;;;;;;;10.07;7.07;;;13.50;96.70;;;;;;4880371;29;20123;-73
2023/01/02 01:39:20;;;;;;;9.35;7.30;;;13.50;96.70;;;;;;4905578;29;20052;-73
2023/01/02 01:41:48;;;;;;;11.07;6.60;;;13.50;96.70;;;;;;4905876;29;20439;-72
2023/01/02 01:44:40;;;;;;;12.18;7.53;;;13.50;96.70;;;;;;4897393;29;20064;-73
2023/01/02 01:47:15;;;;;;;13.13;7.45;;;13.50;96.70;;;;;;4888846;29;20053;-72
2023/01/02 01:49:45;;;;;;;10.57;7.00;;;13.40;96.70;;;;;;4892247;29;20436;-73
2023/01/02 01:52:17;;;;;;;14.52;7.95;;;13.40;96.70;;;;;;4888156;29;20048;-72
2023/01/02 01:54:51;;;;;;;9.15;7.18;;;13.40;96.70;;;;;;4902103;29;20127;-72
2023/01/02 01:57:23;;;;;;;10.40;6.97;;;13.50;96.70;;;;;;4892685;29;20063;-73
2023/01/02 01:59:52;;;;;;;10.20;7.53;;;13.50;96.70;;;;;;4906309;29;20052;-72
2023/01/02 02:02:22;;;;;;;10.93;7.38;;;13.50;96.70;;;;;;4901218;29;20050;-72
2023/01/02 02:04:53;;;;;;;12.73;7.95;;;13.50;96.70;;;;;;4879839;29;20060;-72
2023/01/02 02:07:21;;;;;;;10.43;6.80;;;13.50;96.70;;;;;;4893118;29;20072;-72
2023/01/02 02:09:55;;;;;;;9.60;6.90;;;13.50;96.70;;;;;;4890909;29;20051;-72
2023/01/02 02:12:23;;;;;;;12.02;7.85;;;13.50;96.70;;;;;;4896916;29;20056;-73
2023/01/02 02:14:54;;;;;;;13.88;7.78;;;13.50;96.70;;;;;;4881376;29;20053;-73
2023/01/02 02:17:33;;;;;;;15.38;7.10;;;13.50;96.70;;;;;;4903624;29;20048;-73
2023/01/02 02:20:14;;;;;;;12.18;7.10;;;13.50;96.70;;;;;;4895620;29;20695;-73
2023/01/02 02:23:21;;;;;;;11.40;7.40;;;13.50;96.70;;;;;;4886753;29;20540;-72
2023/01/02 02:26:12;;;;;;;12.52;7.20;;;13.50;96.70;;;;;;4866523;29;20619;-72
2023/01/02 02:29:13;;;;;;;14.63;7.85;;;13.50;96.70;;;;;;4898349;29;20051;-70
2023/01/02 02:31:49;;;;;;;8.60;6.35;;;13.50;96.70;;;;;;4880666;29;20064;-70
2023/01/02 02:34:24;;;;;;;11.00;6.75;;;13.50;96.70;;;;;;4879764;29;20044;-73
2023/01/02 02:37:00;;;;;;;11.75;6.88;;;13.50;96.70;;;;;;4904487;29;20044;-72
2023/01/02 02:39:53;;;;;;;10.60;7.00;;;13.50;96.70;;;;;;4898212;29;20052;-72
2023/01/02 02:42:35;;;;;;;9.52;6.00;;;13.40;96.70;;;;;;4908078;29;20048;-73
2023/01/02 02:45:10;;;;;;;11.07;7.85;;;13.40;96.70;;;;;;4902864;29;20064;-73
2023/01/02 02:47:46;;;;;;;8.60;6.95;;;13.40;96.70;;;;;;4910716;29;20055;-73
2023/01/02 02:50:21;;;;;;;10.30;6.80;;;13.40;96.70;;;;;;4909454;29;20616;-72
2023/01/02 02:52:55;;;;;;;9.30;7.35;;;13.40;96.70;;;;;;4918842;29;20091;-73
2023/01/02 02:55:28;;;;;;;8.68;7.18;;;13.40;96.70;;;;;;4884063;29;20062;-73
2023/01/02 02:57:59;;;;;;;11.48;7.38;;;13.40;96.70;;;;;;4897302;29;20048;-73
2023/01/02 03:00:27;;;;;;;10.55;6.97;;;13.40;96.70;;;;;;4906782;29;20840;-72
2023/01/02 03:02:57;;;;;;;8.32;6.97;;;13.40;96.70;;;;;;4903618;29;20044;-73
2023/01/02 03:05:32;;;;;;;11.00;7.03;;;13.40;96.70;;;;;;4929108;29;20043;-72
2023/01/02 03:08:07;;;;;;;11.68;6.85;;;13.50;96.70;;;;;;4897308;29;20078;-73
2023/01/02 03:10:46;;;;;;;10.65;7.22;;;13.40;96.70;;;;;;4911192;29;20130;-73
2023/01/02 03:13:22;;;;;;;12.68;6.90;;;13.40;96.70;;;;;;4923305;29;20058;-72
2023/01/02 03:15:58;;;;;;;8.95;6.88;;;13.40;96.70;;;;;;4897145;29;20051;-72
2023/01/02 03:18:34;;;;;;;10.80;7.22;;;13.40;96.70;;;;;;4904367;29;20052;-72
2023/01/02 03:21:06;;;;;;;9.68;6.88;;;13.30;96.70;;;;;;4923884;29;20067;-73
2023/01/02 03:23:40;;;;;;;8.48;7.05;;;13.30;96.70;;;;;;4904714;29;20044;-72
2023/01/02 03:26:09;;;;;;;12.00;7.00;;;13.40;96.70;;;;;;4913153;29;20506;-72
2023/01/02 03:28:40;;;;;;;10.55;6.90;;;13.40;96.70;;;;;;4894643;29;20398;-73
2023/01/02 03:31:13;;;;;;;12.02;7.47;;;13.40;96.70;;;;;;4914542;29;20126;-73
2023/01/02 03:33:46;;;;;;;14.75;7.38;;;13.40;96.70;;;;;;4925415;29;20099;-72
2023/01/02 03:36:18;;;;;;;12.02;7.00;;;13.30;96.70;;;;;;4927656;29;20114;-72
2023/01/02 03:38:53;;;;;;;10.40;6.60;;;13.30;96.70;;;;;;4910995;29;20524;-72
2023/01/02 03:41:26;;;;;;;10.73;7.18;;;13.30;96.70;;;;;;4903347;29;20399;-72
2023/01/02 03:43:55;;;;;;;10.45;7.22;;;13.30;96.70;;;;;;4923901;29;20552;-72
2023/01/02 03:46:31;;;;;;;9.88;6.63;;;13.30;96.70;;;;;;4910322;29;20170;-72
2023/01/02 03:49:05;;;;;;;8.95;6.70;;;13.40;96.70;;;;;;4929399;29;20047;-72
2023/01/02 03:51:34;;;;;;;10.27;7.10;;;13.30;96.70;;;;;;4929565;29;20044;-73
2023/01/02 03:54:04;;;;;;;12.90;6.68;;;13.30;96.70;;;;;;4896599;29;20422;-72
2023/01/02 03:56:41;;;;;;;13.00;6.72;;;13.30;96.70;;;;;;4897024;29;20063;-73
2023/01/02 03:59:20;;;;;;;9.27;6.28;;;13.30;96.70;;;;;;4893771;29;20044;-72
2023/01/02 04:01:52;;;;;;;9.95;6.40;;;13.30;96.70;;;;;;4913948;29;20530;-72
2023/01/02 04:04:33;;;;;;;10.55;6.80;;;13.30;96.70;;;;;;4885222;29;20958;-72
2023/01/02 04:07:05;;;;;;;7.82;6.22;;;13.30;96.70;;;;;;4895526;29;20062;-72
2023/01/02 04:09:34;;;;;;;7.80;5.75;;;13.20;96.70;;;;;;4901639;29;20063;-73
2023/01/02 04:12:07;;;;;;;10.57;6.80;;;13.20;96.70;;;;;;4923633;29;20094;-72
2023/01/02 04:14:41;;;;;;;12.02;6.75;;;13.30;96.70;;;;;;4903796;29;20135;-72
2023/01/02 04:17:11;;;;;;;10.82;5.97;;;13.30;96.70;;;;;;4923117;29;20554;-72
2023/01/02 04:19:45;;;;;;;9.60;6.13;;;13.30;96.70;;;;;;4884801;29;20087;-73
2023/01/02 04:22:17;;;;;;;10.02;6.57;;;13.20;96.70;;;;;;4896531;29;20071;-72
2023/01/02 04:24:52;;;;;;;10.00;6.53;;;13.10;96.70;;;;;;4929059;29;20051;-72
2023/01/02 04:27:23;;;;;;;9.63;6.05;;;13.20;96.70;;;;;;4929325;29;20502;-73
2023/01/02 04:29:52;;;;;;;10.60;6.53;;;13.20;96.70;;;;;;4911615;29;20582;-73
2023/01/02 04:32:24;;;;;;;10.32;6.10;;;13.30;96.70;;;;;;4929042;29;20138;-73
2023/01/02 04:34:55;;;;;;;10.88;6.32;;;13.30;96.70;;;;;;4928530;29;20055;-72
2023/01/02 04:37:29;;;;;;;11.63;6.63;;;13.20;96.70;;;;;;4908758;29;20044;-73
2023/01/02 04:40:01;;;;;;;10.55;6.30;;;13.30;96.70;;;;;;4910357;29;20051;-72
2023/01/02 04:42:29;;;;;;;11.23;6.70;;;13.30;96.70;;;;;;4901886;29;20638;-72
2023/01/02 04:44:57;;;;;;;9.60;6.95;;;13.20;96.70;;;;;;4900022;29;20577;-72
2023/01/02 04:47:26;;;;;;;8.05;5.97;;;13.10;96.70;;;;;;4903471;29;20397;-73
2023/01/02 04:49:55;;;;;;;11.00;6.07;;;13.10;96.70;;;;;;4895317;29;20131;-73
2023/01/02 04:52:23;;;;;;;8.80;6.43;;;13.10;96.70;;;;;;4910720;29;20149;-73
2023/01/02 04:54:51;;;;;;;11.05;6.03;;;13.20;96.70;;;;;;4894746;29;20043;-72
2023/01/02 04:57:19;;;;;;;10.18;6.78;;;13.20;96.70;;;;;;4909888;29;20052;-73
2023/01/02 04:59:47;;;;;;;10.38;6.53;;;13.20;96.70;;;;;;4910561;29;20047;-72
2023/01/02 05:02:15;;;;;;;7.18;6.20;;;13.20;96.70;;;;;;4911086;29;20484;-72
2023/01/02 05:04:44;;;;;;;11.35;6.47;;;13.20;96.70;;;;;;4886401;29;20111;-73
2023/01/02 05:07:13;;;;;;;8.75;6.18;;;13.20;96.70;;;;;;4909894;29;20418;-72
2023/01/02 05:09:41;;;;;;;9.48;5.95;;;13.20;96.70;;;;;;4909136;29;20070;-73
2023/01/02 05:12:09;;;;;;;8.35;5.93;;;13.20;96.70;;;;;;4922594;29;20054;-73
2023/01/02 05:14:37;;;;;;;10.40;6.60;;;13.20;96.70;;;;;;4923456;29;20051;-73
2023/01/02 05:17:06;;;;;;;8.55;6.38;;;13.20;96.70;;;;;;4902335;29;20058;-73
2023/01/02 05:19:34;;;;;;;8.90;6.40;;;13.20;96.70;;;;;;4918389;29;20123;-72
2023/01/02 05:24:50;;;;;;;9.30;6.10;;;13.20;96.70;;;;;;4928121;29;20418;-73
2023/01/02 05:27:18;;;;;;;8.98;5.90;;;13.30;96.70;;;;;;4883105;29;20558;-73
2023/01/02 05:29:46;;;;;;;10.45;6.97;;;13.30;96.70;;;;;;4901635;29;20454;-72
2023/01/02 05:32:14;;;;;;;12.55;6.68;;;13.30;96.70;;;;;;4893651;29;20795;-73
2023/01/02 05:34:42;;;;;;;9.90;6.65;;;13.30;96.70;;;;;;4888222;29;20586;-72
2023/01/02 05:37:10;;;;;;;10.07;6.18;;;13.30;96.70;;;;;;4880328;29;20107;-71
2023/01/02 05:39:38;;;;;;;9.10;5.97;;;13.30;96.70;;;;;;4915630;29;20047;-72
2023/01/02 05:42:08;;;;;;;7.10;5.90;;;13.30;96.70;;;;;;4928062;29;20054;-72
2023/01/02 05:44:36;;;;;;;10.07;6.00;;;13.30;96.70;;;;;;4900246;29;20062;-71
2023/01/02 05:47:04;;;;;;;10.52;6.43;;;13.30;96.70;;;;;;4919723;29;20052;-73
2023/01/02 05:49:32;;;;;;;8.90;5.93;;;13.30;96.70;;;;;;4927297;29;20051;-73
2023/01/02 05:52:00;;;;;;;8.80;5.90;;;13.30;96.70;;;;;;4901907;29;20044;-73
2023/01/02 05:54:28;;;;;;;10.77;6.07;;;13.30;96.70;;;;;;4893500;29;20043;-72
2023/01/02 05:56:56;;;;;;;8.88;6.22;;;13.30;96.70;;;;;;4900701;29;20047;-72
2023/01/02 05:59:25;;;;;;;9.93;6.03;;;13.30;96.70;;;;;;4926984;29;20312;-73
2023/01/02 06:01:53;;;;;;;9.15;5.95;;;13.30;96.70;;;;;;4901686;29;20044;-72
2023/01/02 06:04:22;;;;;;;9.00;6.53;;;13.30;96.70;;;;;;4927271;29;20537;-73
2023/01/02 06:06:50;;;;;;;12.45;6.25;;;13.30;96.70;;;;;;4907884;29;20052;-73
2023/01/02 06:09:18;;;;;;;11.45;5.82;;;13.30;96.70;;;;;;4909898;29;20103;-73
2023/01/02 06:11:46;;;;;;;12.30;6.88;;;13.20;96.70;;;;;;4909476;29;20044;-73
2023/01/02 06:14:14;;;;;;;9.40;5.80;;;13.30;96.70;;;;;;4908028;29;20138;-73
2023/01/02 06:16:43;;;;;;;9.88;6.13;;;13.30;96.70;;;;;;4894069;29;20055;-72
2023/01/02 06:19:11;;;;;;;10.00;6.35;;;13.20;96.70;;;;;;4890021;29;20138;-72
2023/01/02 06:21:39;;;;;;;7.85;5.70;;;13.20;96.70;;;;;;4903643;29;20562;-73
2023/01/02 06:24:08;;;;;;;11.25;5.93;;;13.20;96.70;;;;;;4907888;29;20055;-73
2023/01/02 06:26:36;;;;;;;11.32;6.50;;;13.20;96.70;;;;;;4917763;29;20044;-73
2023/01/02 06:29:04;;;;;;;8.55;6.43;;;13.20;96.70;;;;;;4898931;29;20162;-73
2023/01/02 06:31:56;;;;;;;9.70;6.15;;;13.20;96.70;;;;;;4903435;29;20044;-72
2023/01/02 06:34:24;;;;;;;9.38;5.97;;;13.20;96.70;;;;;;4908643;29;20116;-72
2023/01/02 06:36:52;;;;;;;8.30;6.22;;;13.30;96.70;;;;;;4926300;29;20054;-72
2023/01/02 06:39:20;;;;;;;12.32;7.38;;;13.20;96.70;;;;;;4898123;29;20051;-73
2023/01/02 06:41:48;;;;;;;9.55;6.70;;;13.20;96.70;;;;;;4892372;29;20463;-73
2023/01/02 06:44:16;;;;;;;10.95;6.60;;;13.20;96.70;;;;;;4910366;29;20059;-73
2023/01/02 06:46:44;;;;;;;9.75;6.50;;;13.30;96.70;;;;;;4924691;29;20048;-73
2023/01/02 06:49:14;;;;;;;13.27;6.60;;;13.20;96.70;;;;;;4894808;29;20056;-73
2023/01/02 06:51:42;;;;;;;8.63;6.20;;;13.20;96.70;;;;;;4918826;29;20502;-73
2023/01/02 06:54:10;;;;;;;13.13;6.63;;;13.20;96.70;;;;;;4926853;29;20098;-73
2023/01/02 06:56:38;;;;;;;13.15;6.57;;;13.10;96.70;;;;;;4926618;29;20048;-72
2023/01/02 06:59:06;;;;;;;13.85;6.68;;;13.20;96.70;;;;;;4900870;29;20059;-72
2023/01/02 07:01:34;;;;;;;10.35;6.10;;;13.10;96.70;;;;;;4914713;29;20154;-73
2023/01/02 07:04:02;;;;;;;9.98;6.82;;;13.20;96.70;;;;;;4917522;29;20663;-73
2023/01/02 07:06:33;;;;;;;13.43;7.00;;;13.20;96.70;;;;;;4923972;29;20123;-72
2023/01/02 07:09:01;;;;;;;11.13;6.82;;;13.20;96.70;;;;;;4909011;29;20052;-72
2023/01/02 07:11:29;;;;;;;12.60;7.65;;;13.20;96.70;;;;;;4909319;29;20438;-73
2023/01/02 07:13:57;;;;;;;14.70;9.32;;;13.20;96.70;;;;;;4909998;29;20044;-72
2023/01/02 07:16:25;;;;;;;14.93;8.95;;;13.20;96.70;;;;;;4916383;29;20112;-72
2023/01/02 07:18:53;;;;;;;15.55;8.55;;;13.20;96.70;;;;;;4900122;29;20051;-72
2023/01/02 07:21:21;;;;;;;10.32;7.13;;;13.20;96.70;;;;;;4920376;29;20040;-72
2023/01/02 07:23:50;;;;;;;12.20;7.20;;;13.30;96.70;;;;;;4881979;29;20487;-72
2023/01/02 07:26:18;;;;;;;12.95;6.95;;;13.30;96.70;;;;;;4900545;29;20043;-72
2023/01/02 07:28:46;;;;;;;8.63;5.50;;;13.20;96.70;;;;;;4926742;29;20059;-72
2023/01/02 07:31:17;;;;;;;10.02;6.13;;;13.20;96.70;;;;;;4891739;29;20128;-72
2023/01/02 07:33:45;;;;;;;9.50;6.20;;;13.20;96.70;;;;;;4890439;29;20443;-72
2023/01/02 07:36:14;;;;;;;8.82;5.55;;;13.20;96.70;;;;;;4890680;29;20048;-73
2023/01/02 07:38:42;;;;;;;8.70;6.05;;;13.20;96.70;;;;;;4896548;29;20063;-73
2023/01/02 07:41:17;;;;;;;9.95;5.78;;;13.20;96.70;;;;;;4906967;29;20130;-73
2023/01/02 07:43:45;;;;;;;8.70;6.10;;;13.10;96.70;;;;;;4915668;29;20048;-72
2023/01/02 07:46:14;;;;;;;11.15;5.95;;;13.20;96.70;;;;;;4908164;29;20053;-73
2023/01/02 07:48:42;;;;;;;6.97;5.50;;;13.20;96.70;;;;;;4913043;29;20058;-77
2023/01/02 07:51:11;;;;;;;9.95;6.22;;;13.30;96.70;;;;;;4902974;29;20040;-72
2023/01/02 07:53:40;;;;;;;7.82;6.00;;;13.30;96.70;;;;;;4912524;29;20537;-72
2023/01/02 07:56:09;;;;;;;7.97;5.97;;;13.30;96.70;;;;;;4920152;29;20091;-72
2023/01/02 07:58:38;;;;;;;9.90;6.47;;;13.30;96.70;;;;;;4929777;29;20046;-73
2023/01/02 08:01:07;;;;;;;10.77;7.45;;;13.30;96.70;;;;;;4929250;29;20047;-72
2023/01/02 08:03:35;;;;;;;11.27;6.30;;;13.30;96.70;;;;;;4929288;29;20171;-73
2023/01/02 08:06:04;;;;;;;10.88;6.35;;;13.30;96.70;;;;;;4903580;29;20048;-72
2023/01/02 08:08:32;;;;;;;10.70;5.97;;;13.40;96.70;;;;;;4920296;29;20052;-72
2023/01/02 08:11:04;;;;;;;9.82;5.68;;;13.40;96.70;;;;;;4912875;29;20051;-73
2023/01/02 08:13:32;;;;;;;9.38;6.00;;;13.40;96.70;;;;;;4923493;29;20043;-73
2023/01/02 08:16:05;;;;;;;8.48;5.82;;;13.40;96.70;;;;;;4908689;29;20510;-72
2023/01/02 08:18:33;;;;;;;9.40;6.13;;;13.40;96.70;;;;;;4899459;29;20048;-72
2023/01/02 08:21:01;;;;;;;9.40;5.93;;;13.40;96.70;;;;;;4919897;29;20480;-73
2023/01/02 08:23:30;;;;;;;9.07;5.35;;;13.40;96.70;;;;;;4910890;29;20044;-72
2023/01/02 08:25:58;;;;;;;9.25;5.90;;;13.40;96.70;;;;;;4914761;29;20506;-73
2023/01/02 08:28:27;;;;;;;8.27;5.82;;;13.50;96.70;;;;;;4929556;29;20382;-72
2023/01/02 08:31:18;;;;;;;9.05;6.35;;;13.50;96.70;;;;;;4902417;29;20617;-73
2023/01/02 08:33:46;;;;;;;7.22;5.57;;;13.50;96.70;;;;;;4902134;29;20582;-72
2023/01/02 08:36:14;;;;;;;9.23;6.57;;;13.50;96.70;;;;;;4905475;29;20071;-72
2023/01/02 08:38:42;;;;;;;10.60;6.07;;;13.50;96.70;;;;;;4922999;29;20075;-72
2023/01/02 08:41:09;;;;;;;11.38;6.47;;;13.60;96.70;;;;;;4908759;29;20063;-72
2023/01/02 08:43:38;;;;;;;11.43;6.30;;;13.60;96.70;;;;;;4919881;29;20048;-73
2023/01/02 08:46:08;;;;;;;10.52;5.80;;;13.60;96.70;;;;;;4909410;29;20580;-72
2023/01/02 08:48:37;;;;;;;10.63;6.65;;;13.60;96.70;;;;;;4929020;29;20051;-73
2023/01/02 08:51:05;;;;;;;10.27;6.60;;;13.60;96.70;;;;;;4895240;29;20148;-73
2023/01/02 08:53:33;;;;;;;15.32;6.60;;;13.60;96.70;;;;;;4919993;29;20036;-72
2023/01/02 08:56:22;;;;;;;14.60;7.28;;;13.60;96.70;;;;;;4897060;29;20533;-73
2023/01/02 08:58:51;;;;;;;12.27;7.30;;;13.70;96.70;;;;;;4893414;29;20056;-73
2023/01/02 09:01:20;;;;;;;12.77;7.47;;;13.70;96.70;;;;;;4891626;29;20044;-73
2023/01/02 09:03:51;;;;;;;11.18;7.38;;;13.70;96.70;;;;;;4899222;29;20051;-73
2023/01/02 09:06:19;;;;;;;10.38;7.30;;;13.80;96.70;;;;;;4918523;29;20506;-73
2023/01/02 09:08:51;;;;;;;12.18;7.60;;;13.80;96.70;;;;;;4901879;29;20494;-73
2023/01/02 09:11:20;;;;;;;8.52;7.18;;;13.80;96.70;;;;;;4895780;29;20051;-73
2023/01/02 09:13:48;;;;;;;11.30;6.47;;;13.80;96.70;;;;;;4921101;29;20051;-73
2023/01/02 09:16:16;;;;;;;10.35;6.80;;;13.90;96.70;;;;;;4924749;29;20051;-73
2023/01/02 09:18:44;;;;;;;12.45;7.38;;;13.90;96.70;;;;;;4909312;29;20051;-72
2023/01/02 09:21:13;;;;;;;8.75;5.75;;;13.90;96.70;;;;;;4901007;29;20071;-73
2023/01/02 09:23:41;;;;;;;8.88;6.50;;;13.90;96.70;;;;;;4894495;29;20052;-72
2023/01/02 09:26:11;;;;;;;7.82;6.03;;;13.90;96.70;;;;;;4922303;29;20051;-73
2023/01/02 09:28:39;;;;;;;8.15;6.43;;;14.00;96.70;;;;;;4902364;29;20465;-72
2023/01/02 09:31:09;;;;;;;10.20;7.20;;;14.00;96.70;;;;;;4911083;29;20506;-72
2023/01/02 09:33:40;;;;;;;10.68;7.60;;;14.00;96.70;;;;;;4927424;29;20054;-73
2023/01/02 09:36:10;;;;;;;12.00;8.07;;;14.00;96.70;;;;;;4908010;29;20104;-72
2023/01/02 09:38:39;;;;;;;11.68;7.40;;;14.00;96.70;;;;;;4917829;29;20059;-72
2023/01/02 09:41:20;;;;;;;12.57;6.68;;;14.00;96.70;;;;;;4923987;29;20055;-73
2023/01/02 09:43:54;;;;;;;11.88;6.28;;;14.10;96.70;;;;;;4909241;29;20036;-73
2023/01/02 09:46:30;;;;;;;10.30;6.05;;;14.10;96.70;;;;;;4885394;29;20060;-72
2023/01/02 09:48:59;;;;;;;11.27;6.47;;;14.10;96.70;;;;;;4905833;29;20142;-72
2023/01/02 09:51:27;;;;;;;8.45;5.55;;;14.20;96.70;;;;;;4918705;29;20051;-73
2023/01/02 09:53:57;;;;;;;7.63;5.82;;;14.20;96.70;;;;;;4901896;29;20070;-73
2023/01/02 09:56:31;;;;;;;11.70;5.80;;;14.20;96.70;;;;;;4918874;29;20047;-72
2023/01/02 09:59:11;;;;;;;8.05;5.78;;;14.30;96.70;;;;;;4898676;29;20052;-72
2023/01/02 10:01:52;;;;;;;8.38;5.25;;;14.30;96.70;;;;;;4891529;29;20048;-72
2023/01/02 10:04:33;;;;;;;8.27;4.88;;;14.40;96.70;;;;;;4886196;29;20059;-73
2023/01/02 10:07:08;;;;;;;9.32;5.40;;;14.40;96.70;;;;;;4882521;29;20052;-73
2023/01/02 10:09:47;;;;;;;9.75;5.45;;;14.40;96.70;;;;;;4923939;29;20043;-72
2023/01/02 10:12:22;;;;;;;10.27;5.07;;;14.50;96.70;;;;;;4900665;29;20421;-72
2023/01/02 10:14:55;;;;;;;8.13;5.15;;;14.60;96.70;;;;;;4911894;29;20052;-73
2023/01/02 10:17:25;;;;;;;10.13;5.60;;;14.60;96.70;;;;;;4894420;29;20056;-72
2023/01/02 10:19:56;;;;;;;9.52;6.20;;;14.60;96.70;;;;;;4899743;29;20050;-72
2023/01/02 10:22:33;;;;;;;10.23;5.45;;;14.70;96.70;;;;;;4909016;29;20055;-72
2023/01/02 10:25:09;;;;;;;7.65;5.85;;;14.70;96.70;;;;;;4892414;29;20036;-73
2023/01/02 10:27:42;;;;;;;11.18;5.75;;;14.70;96.70;;;;;;4887472;29;20063;-72
2023/01/02 10:30:18;;;;;;;8.43;5.55;;;14.70;96.70;;;;;;4908435;29;20059;-72
2023/01/02 10:32:52;;;;;;;8.55;5.45;;;14.70;96.70;;;;;;4910074;29;20044;-73
2023/01/02 10:35:35;;;;;;;10.10;5.25;;;14.80;96.70;;;;;;4896500;29;20749;-73
2023/01/02 10:38:03;;;;;;;10.25;6.00;;;14.80;96.70;;;;;;4910465;29;20513;-73
2023/01/02 10:40:33;;;;;;;10.02;5.50;;;14.90;96.70;;;;;;4908347;29;20126;-72
2023/01/02 10:43:01;;;;;;;8.57;5.78;;;14.90;96.70;;;;;;4907029;29;21617;-73
2023/01/02 10:45:29;;;;;;;7.75;5.13;;;15.00;96.70;;;;;;4874130;29;20418;-72
2023/01/02 10:47:57;;;;;;;10.23;5.70;;;15.00;96.70;;;;;;4897920;29;20053;-73
2023/01/02 10:50:29;;;;;;;7.68;4.38;;;15.00;96.70;;;;;;4900252;29;20036;-72
2023/01/02 10:53:05;;;;;;;5.88;4.63;;;15.10;96.70;;;;;;4895483;29;20460;-73
2023/01/02 10:55:39;;;;;;;8.70;5.15;;;15.20;96.70;;;;;;4892474;29;20586;-73
2023/01/02 10:58:18;;;;;;;9.25;5.18;;;15.20;96.70;;;;;;4893154;29;20060;-73
2023/01/02 11:00:48;;;;;;;10.70;5.43;;;15.30;96.70;;;;;;4890623;29;20202;-73
2023/01/02 11:03:21;;;;;;;8.90;4.88;;;15.30;96.70;;;;;;4906648;29;20052;-73
2023/01/02 11:05:51;;;;;;;8.02;4.35;;;15.50;96.70;;;;;;4900921;29;20044;-73
2023/01/02 11:08:21;;;;;;;8.75;4.88;;;15.50;96.70;;;;;;4906433;29;20412;-73
2023/01/02 11:10:51;;;;;;;9.15;5.10;;;15.60;96.70;;;;;;4899259;29;20115;-73
2023/01/02 11:13:20;;;;;;;7.85;4.63;;;15.70;96.70;;;;;;4897954;29;20060;-72
2023/01/02 11:15:51;;;;;;;8.50;4.70;;;15.80;96.70;;;;;;4887604;29;20432;-73
2023/01/02 11:18:23;;;;;;;8.13;4.50;;;15.80;96.70;;;;;;4900075;29;20059;-73
2023/01/02 11:20:54;;;;;;;9.13;4.38;;;15.80;96.70;;;;;;4907673;29;20055;-73
2023/01/02 11:23:24;;;;;;;9.00;5.07;;;15.80;96.70;;;;;;4882661;29;20096;-72
2023/01/02 11:25:55;;;;;;;7.55;4.65;;;15.80;96.70;;;;;;4899413;29;20056;-73
2023/01/02 11:28:26;;;;;;;13.50;5.53;;;15.80;96.70;;;;;;4898755;29;20057;-72
2023/01/02 11:31:01;;;;;;;12.20;4.90;;;15.80;96.70;;;;;;4881767;29;20056;-73
2023/01/02 11:33:31;;;;;;;10.50;5.13;;;15.90;96.70;;;;;;4907065;29;20573;-73
2023/01/02 11:36:13;;;;;;;9.90;4.35;;;15.90;96.70;;;;;;4909418;29;20060;-73
2023/01/02 11:38:43;;;;;;;9.30;5.13;;;15.90;96.70;;;;;;4879631;29;20414;-73
2023/01/02 11:44:23;;;;;;;5.35;3.85;;;16.10;96.70;;;;;;4897758;29;20087;-73
2023/01/02 11:46:52;;;;;;;6.03;3.72;;;16.10;96.70;;;;;;4899002;29;20069;-73
2023/01/02 11:49:23;;;;;;;5.28;3.50;;;16.10;96.70;;;;;;4891104;29;20108;-73
2023/01/02 11:51:55;;;;;;;11.13;4.70;;;16.10;96.70;;;;;;4900813;29;20660;-73
2023/01/02 11:54:30;;;;;;;8.75;4.13;;;16.10;96.70;;;;;;4891060;29;20077;-73
2023/01/02 11:57:00;;;;;;;7.03;3.80;;;16.10;96.70;;;;;;4890910;29;20120;-73
2023/01/02 11:59:35;;;;;;;5.97;3.60;;;16.10;96.70;;;;;;4905597;29;20419;-73
2023/01/02 12:02:12;;;;;;;7.18;3.60;;;16.10;96.70;;;;;;4908921;29;20578;-75
2023/01/02 12:04:40;;;;;;;6.38;3.70;;;16.10;96.70;;;;;;4890521;29;20053;-75
2023/01/02 12:07:25;;;;;;;13.98;5.30;;;16.10;96.70;;;;;;4903431;29;20419;-73
2023/01/02 12:10:01;;;;;;;11.63;4.68;;;16.20;96.70;;;;;;4908064;29;20048;-75
2023/01/02 12:12:48;;;;;;;7.28;4.03;;;16.20;96.70;;;;;;4898635;29;20040;-74
2023/01/02 12:15:43;;;;;;;6.75;3.65;;;16.20;96.70;;;;;;4881931;29;20088;-72
2023/01/02 12:18:26;;;;;;;9.52;4.18;;;16.20;96.70;;;;;;4870305;29;20064;-73
2023/01/02 12:21:04;;;;;;;8.40;4.40;;;16.20;96.70;;;;;;4898717;29;20130;-72
2023/01/02 12:23:58;;;;;;;7.22;3.97;;;16.30;96.70;;;;;;4900120;29;20045;-72
2023/01/02 12:26:31;;;;;;;7.07;3.80;;;16.30;96.70;;;;;;4892478;29;20048;-73
2023/01/02 12:29:23;;;;;;;6.20;4.50;;;16.30;96.70;;;;;;4891730;29;20055;-73
2023/01/02 12:32:37;;;;;;;9.02;4.50;;;16.40;96.70;;;;;;4882025;29;20658;-73
2023/01/02 12:35:18;;;;;;;13.40;4.40;;;16.40;96.70;;;;;;4879266;29;20045;-73
2023/01/02 12:37:51;;;;;;;6.38;4.43;;;16.50;96.70;;;;;;4903614;29;20052;-73
2023/01/02 12:40:42;;;;;;;7.68;4.22;;;16.60;96.70;;;;;;4896762;29;20059;-72
2023/01/02 12:43:28;;;;;;;9.55;4.55;;;16.70;96.70;;;;;;4900861;29;20554;-74
2023/01/02 12:46:10;;;;;;;8.97;4.37;;;16.80;96.70;;;;;;4897491;29;20155;-72
2023/01/02 12:48:58;;;;;;;6.85;3.97;;;16.80;96.70;;;;;;4899278;29;20055;-73
2023/01/02 12:51:32;;;;;;;6.32;4.15;;;16.80;96.70;;;;;;4898972;29;20570;-74
2023/01/02 12:54:27;;;;;;;7.80;4.43;;;16.80;96.70;;;;;;4906488;29;20134;-73
2023/01/02 12:57:02;;;;;;;11.63;4.88;;;16.80;96.70;;;;;;4903397;29;20147;-74
2023/01/02 12:59:47;;;;;;;9.52;3.90;;;16.90;96.70;;;;;;4888466;29;20048;-74
2023/01/02 13:02:29;;;;;;;8.25;4.53;;;17.00;96.70;;;;;;4887741;29;20049;-74
2023/01/02 13:05:04;;;;;;;7.47;4.15;;;17.10;96.70;;;;;;4889670;29;20408;-74
2023/01/02 13:07:38;;;;;;;7.38;3.95;;;17.40;96.70;;;;;;4898246;29;20449;-74
2023/01/02 13:10:13;;;;;;;7.57;4.13;;;17.60;96.70;;;;;;4898799;29;20036;-74